EZY365G EGCC-EGAC
Flight info
| Callsign | EZY365G |
|---|---|
| Flight time | 0h 35m |
| Altitude | 24000 |
| Route | EKLAD Y53 WAL M146 ERDUV Z198 MASOP M148 MAGEE |
| Aircraft | A320/M-SDE1E2E3FGHIRWXY/LB1 |
Departure
| Time | 2026-04-25 17:33 |
|---|---|
| Airport | Manchester Airport (EGCC) |
Arrival
| Time | 2026-04-25 18:08 |
|---|---|
| Airport | George Best Belfast City Airport (EGAC) |
| Time | Latitude | Longitude | Altitude | Speed | Heading |
|---|---|---|---|---|---|
| 2026-04-25 16:56 | 53.36860 | -2.28596 | 255 ft | 0 kts | 314° |
| 2026-04-25 17:22 | 53.36859 | -2.28596 | 255 ft | 0 kts | 314° |
| 2026-04-25 17:23 | 53.36844 | -2.28570 | 255 ft | 4 kts | 314° |
| 2026-04-25 17:23 | 53.36829 | -2.28544 | 255 ft | 4 kts | 298° |
| 2026-04-25 17:23 | 53.36827 | -2.28510 | 255 ft | 4 kts | 234° |
| 2026-04-25 17:23 | 53.36831 | -2.28501 | 255 ft | 4 kts | 224° |
| 2026-04-25 17:24 | 53.36813 | -2.28530 | 255 ft | 2 kts | 224° |
| 2026-04-25 17:24 | 53.36812 | -2.28531 | 255 ft | 0 kts | 224° |
| 2026-04-25 17:27 | 53.36787 | -2.28573 | 255 ft | 11 kts | 224° |
| 2026-04-25 17:27 | 53.36737 | -2.28656 | 255 ft | 19 kts | 224° |
| 2026-04-25 17:28 | 53.36596 | -2.28773 | 255 ft | 13 kts | 155° |
| 2026-04-25 17:28 | 53.36519 | -2.28655 | 255 ft | 17 kts | 135° |
| 2026-04-25 17:28 | 53.36425 | -2.28488 | 255 ft | 22 kts | 125° |
| 2026-04-25 17:28 | 53.36338 | -2.28269 | 255 ft | 18 kts | 136° |
| 2026-04-25 17:29 | 53.36246 | -2.28117 | 255 ft | 19 kts | 135° |
| 2026-04-25 17:29 | 53.36142 | -2.27954 | 255 ft | 22 kts | 142° |
| 2026-04-25 17:29 | 53.36017 | -2.27791 | 255 ft | 24 kts | 142° |
| 2026-04-25 17:29 | 53.35858 | -2.27731 | 254 ft | 25 kts | 183° |
| 2026-04-25 17:30 | 53.35758 | -2.27658 | 250 ft | 14 kts | 157° |
| 2026-04-25 17:30 | 53.35654 | -2.27572 | 246 ft | 19 kts | 140° |
| 2026-04-25 17:30 | 53.35655 | -2.27384 | 250 ft | 17 kts | 49° |
| 2026-04-25 17:30 | 53.35723 | -2.27241 | 255 ft | 17 kts | 52° |
| 2026-04-25 17:31 | 53.35802 | -2.27076 | 255 ft | 19 kts | 55° |
| 2026-04-25 17:31 | 53.35880 | -2.26879 | 256 ft | 18 kts | 53° |
| 2026-04-25 17:31 | 53.35957 | -2.26700 | 259 ft | 20 kts | 51° |
| 2026-04-25 17:31 | 53.36050 | -2.26507 | 256 ft | 22 kts | 51° |
| 2026-04-25 17:32 | 53.36137 | -2.26316 | 255 ft | 16 kts | 66° |
| 2026-04-25 17:32 | 53.36086 | -2.26181 | 256 ft | 13 kts | 141° |
| 2026-04-25 17:32 | 53.36020 | -2.26171 | 259 ft | 9 kts | 216° |
| 2026-04-25 17:32 | 53.35913 | -2.26380 | 266 ft | 55 kts | 231° |
| 2026-04-25 17:33 | 53.35522 | -2.27190 | 250 ft | 123 kts | 231° |
| 2026-04-25 17:33 | 53.34878 | -2.28532 | 374 ft | 160 kts | 233° |
| 2026-04-25 17:33 | 53.34220 | -2.29983 | 1099 ft | 156 kts | 233° |
| 2026-04-25 17:33 | 53.33550 | -2.31468 | 1608 ft | 168 kts | 233° |
| 2026-04-25 17:34 | 53.32803 | -2.33134 | 1923 ft | 190 kts | 236° |
| 2026-04-25 17:34 | 53.32375 | -2.35336 | 2213 ft | 214 kts | 271° |
| 2026-04-25 17:34 | 53.32465 | -2.37927 | 2615 ft | 238 kts | 274° |
| 2026-04-25 17:34 | 53.32580 | -2.40808 | 3134 ft | 257 kts | 274° |
| 2026-04-25 17:35 | 53.32498 | -2.43828 | 3918 ft | 265 kts | 256° |
| 2026-04-25 17:35 | 53.31993 | -2.46818 | 4696 ft | 271 kts | 253° |
| 2026-04-25 17:35 | 53.31447 | -2.49853 | 4959 ft | 272 kts | 253° |
| 2026-04-25 17:35 | 53.30888 | -2.52875 | 5025 ft | 272 kts | 252° |
| 2026-04-25 17:36 | 53.30327 | -2.55889 | 5032 ft | 272 kts | 252° |
| 2026-04-25 17:36 | 53.29769 | -2.58886 | 5028 ft | 268 kts | 253° |
| 2026-04-25 17:36 | 53.29226 | -2.61816 | 5028 ft | 267 kts | 253° |
| 2026-04-25 17:36 | 53.28678 | -2.64772 | 5027 ft | 266 kts | 253° |
| 2026-04-25 17:37 | 53.28129 | -2.67731 | 5028 ft | 266 kts | 253° |
| 2026-04-25 17:37 | 53.27577 | -2.70693 | 5149 ft | 272 kts | 253° |
| 2026-04-25 17:37 | 53.27017 | -2.73710 | 6085 ft | 271 kts | 253° |
| 2026-04-25 17:37 | 53.26458 | -2.76728 | 7008 ft | 273 kts | 253° |
| 2026-04-25 17:38 | 53.26072 | -2.79848 | 7843 ft | 277 kts | 267° |
| 2026-04-25 17:38 | 53.26125 | -2.81980 | 8425 ft | 279 kts | 279° |
| 2026-04-25 17:38 | 53.27013 | -2.86058 | 9535 ft | 284 kts | 302° |
| 2026-04-25 17:38 | 53.28190 | -2.88725 | 10331 ft | 289 kts | 307° |
| 2026-04-25 17:39 | 53.29454 | -2.91515 | 10608 ft | 312 kts | 306° |
| 2026-04-25 17:39 | 53.30793 | -2.94492 | 11065 ft | 326 kts | 306° |
| 2026-04-25 17:39 | 53.32142 | -2.97506 | 11776 ft | 330 kts | 306° |
| 2026-04-25 17:39 | 53.33525 | -3.00606 | 12524 ft | 333 kts | 306° |
| 2026-04-25 17:40 | 53.34919 | -3.03740 | 13280 ft | 336 kts | 306° |
| 2026-04-25 17:40 | 53.36318 | -3.06891 | 14012 ft | 340 kts | 306° |
| 2026-04-25 17:40 | 53.37735 | -3.10087 | 14649 ft | 344 kts | 305° |
| 2026-04-25 17:40 | 53.39184 | -3.13295 | 15286 ft | 348 kts | 309° |
| 2026-04-25 17:41 | 53.40857 | -3.16242 | 15931 ft | 351 kts | 313° |
| 2026-04-25 17:41 | 53.42578 | -3.19162 | 16590 ft | 353 kts | 313° |
| 2026-04-25 17:41 | 53.44313 | -3.22113 | 17240 ft | 356 kts | 313° |
| 2026-04-25 17:41 | 53.46054 | -3.25079 | 17877 ft | 359 kts | 313° |
| 2026-04-25 17:42 | 53.47789 | -3.28036 | 18492 ft | 361 kts | 313° |
| 2026-04-25 17:42 | 53.49554 | -3.31049 | 19051 ft | 364 kts | 313° |
| 2026-04-25 17:42 | 53.51336 | -3.34096 | 19606 ft | 366 kts | 313° |
| 2026-04-25 17:42 | 53.53126 | -3.37168 | 20159 ft | 369 kts | 313° |
| 2026-04-25 17:43 | 53.54922 | -3.40257 | 20722 ft | 371 kts | 313° |
| 2026-04-25 17:43 | 53.56731 | -3.43374 | 21276 ft | 374 kts | 313° |
| 2026-04-25 17:43 | 53.58436 | -3.46678 | 21820 ft | 375 kts | 304° |
| 2026-04-25 17:43 | 53.59933 | -3.50217 | 22357 ft | 377 kts | 304° |
| 2026-04-25 17:44 | 53.61456 | -3.53831 | 22907 ft | 380 kts | 304° |
| 2026-04-25 17:44 | 53.62987 | -3.57468 | 23452 ft | 382 kts | 304° |
| 2026-04-25 17:44 | 53.64531 | -3.61138 | 23938 ft | 385 kts | 304° |
| 2026-04-25 17:44 | 53.66078 | -3.64825 | 24156 ft | 386 kts | 304° |
| 2026-04-25 17:45 | 53.67608 | -3.68477 | 24204 ft | 374 kts | 304° |
| 2026-04-25 17:45 | 53.68593 | -3.70830 | 24223 ft | 368 kts | 303° |
| 2026-04-25 17:45 | 53.70555 | -3.75543 | 24218 ft | 366 kts | 303° |
| 2026-04-25 17:45 | 53.72015 | -3.79057 | 24215 ft | 366 kts | 303° |
| 2026-04-25 17:46 | 53.73456 | -3.82528 | 24216 ft | 365 kts | 303° |
| 2026-04-25 17:46 | 53.74915 | -3.86043 | 24215 ft | 365 kts | 303° |
| 2026-04-25 17:46 | 53.76375 | -3.89559 | 24214 ft | 365 kts | 303° |
| 2026-04-25 17:46 | 53.77833 | -3.93076 | 24215 ft | 365 kts | 303° |
| 2026-04-25 17:47 | 53.79291 | -3.96595 | 24219 ft | 365 kts | 303° |
| 2026-04-25 17:47 | 53.80746 | -4.00108 | 24213 ft | 365 kts | 303° |
| 2026-04-25 17:47 | 53.82199 | -4.03632 | 24216 ft | 365 kts | 303° |
| 2026-04-25 17:47 | 53.83652 | -4.07168 | 24215 ft | 365 kts | 303° |
| 2026-04-25 17:48 | 53.86674 | -4.14076 | 24214 ft | 367 kts | 312° |
| 2026-04-25 17:48 | 53.88589 | -4.16847 | 24216 ft | 369 kts | 323° |
| 2026-04-25 17:48 | 53.90842 | -4.18959 | 24211 ft | 372 kts | 335° |
| 2026-04-25 17:49 | 53.93253 | -4.20555 | 24226 ft | 373 kts | 336° |
| 2026-04-25 17:49 | 53.95680 | -4.22150 | 24217 ft | 373 kts | 336° |
| 2026-04-25 17:49 | 53.98100 | -4.23747 | 24214 ft | 374 kts | 336° |
| 2026-04-25 17:49 | 54.00518 | -4.25351 | 24210 ft | 374 kts | 336° |
| 2026-04-25 17:50 | 54.02942 | -4.26965 | 24208 ft | 374 kts | 336° |
| 2026-04-25 17:50 | 54.05364 | -4.28579 | 24207 ft | 374 kts | 336° |
| 2026-04-25 17:50 | 54.07788 | -4.30193 | 24211 ft | 375 kts | 336° |
| 2026-04-25 17:50 | 54.10220 | -4.31815 | 24210 ft | 375 kts | 336° |
| 2026-04-25 17:51 | 54.12609 | -4.33417 | 24210 ft | 374 kts | 334° |
| 2026-04-25 17:51 | 54.14885 | -4.35576 | 24219 ft | 380 kts | 321° |
| 2026-04-25 17:51 | 54.16856 | -4.38608 | 24226 ft | 385 kts | 308° |
| 2026-04-25 17:51 | 54.18449 | -4.42288 | 24221 ft | 386 kts | 303° |
| 2026-04-25 17:52 | 54.19983 | -4.46055 | 24218 ft | 387 kts | 303° |
| 2026-04-25 17:52 | 54.21000 | -4.48548 | 24211 ft | 383 kts | 303° |
| 2026-04-25 17:52 | 54.22959 | -4.53315 | 24000 ft | 352 kts | 303° |
| 2026-04-25 17:52 | 54.24347 | -4.56683 | 23402 ft | 343 kts | 303° |
| 2026-04-25 17:53 | 54.25705 | -4.59987 | 22660 ft | 337 kts | 303° |
| 2026-04-25 17:53 | 54.27029 | -4.63218 | 21926 ft | 333 kts | 303° |
| 2026-04-25 17:53 | 54.28350 | -4.66454 | 21203 ft | 330 kts | 302° |
| 2026-04-25 17:53 | 54.29650 | -4.69657 | 20492 ft | 326 kts | 302° |
| 2026-04-25 17:54 | 54.30935 | -4.72836 | 19805 ft | 323 kts | 302° |
| 2026-04-25 17:54 | 54.32208 | -4.75989 | 19137 ft | 320 kts | 302° |
| 2026-04-25 17:54 | 54.33472 | -4.79113 | 18486 ft | 318 kts | 302° |
| 2026-04-25 17:54 | 54.34727 | -4.82216 | 17746 ft | 316 kts | 302° |
| 2026-04-25 17:55 | 54.35974 | -4.85303 | 17020 ft | 314 kts | 302° |
| 2026-04-25 17:55 | 54.37211 | -4.88362 | 16340 ft | 312 kts | 302° |
| 2026-04-25 17:55 | 54.38441 | -4.91411 | 15680 ft | 310 kts | 302° |
| 2026-04-25 17:55 | 54.39663 | -4.94443 | 15025 ft | 308 kts | 302° |
| 2026-04-25 17:56 | 54.40870 | -4.97456 | 14059 ft | 317 kts | 302° |
| 2026-04-25 17:56 | 54.42132 | -5.00615 | 13233 ft | 318 kts | 302° |
| 2026-04-25 17:56 | 54.43352 | -5.03658 | 12955 ft | 302 kts | 302° |
| 2026-04-25 17:56 | 54.44520 | -5.06566 | 12604 ft | 289 kts | 302° |
| 2026-04-25 17:57 | 54.45644 | -5.09343 | 12254 ft | 278 kts | 302° |
| 2026-04-25 17:57 | 54.46745 | -5.12055 | 11909 ft | 277 kts | 302° |
| 2026-04-25 17:57 | 54.47844 | -5.14767 | 11558 ft | 276 kts | 302° |
| 2026-04-25 17:57 | 54.48215 | -5.15684 | 11438 ft | 275 kts | 302° |
| 2026-04-25 17:58 | 54.50030 | -5.20178 | 10861 ft | 276 kts | 303° |
| 2026-04-25 17:58 | 54.51293 | -5.22665 | 10500 ft | 277 kts | 316° |
| 2026-04-25 17:58 | 54.52784 | -5.24717 | 10138 ft | 278 kts | 320° |
| 2026-04-25 17:58 | 54.54308 | -5.26768 | 9724 ft | 278 kts | 320° |
| 2026-04-25 17:59 | 54.55826 | -5.28824 | 9348 ft | 277 kts | 320° |
| 2026-04-25 17:59 | 54.57337 | -5.30879 | 8968 ft | 276 kts | 320° |
| 2026-04-25 17:59 | 54.58839 | -5.32931 | 8584 ft | 275 kts | 320° |
| 2026-04-25 17:59 | 54.60335 | -5.34974 | 8202 ft | 274 kts | 320° |
| 2026-04-25 18:00 | 54.61825 | -5.37006 | 7804 ft | 273 kts | 320° |
| 2026-04-25 18:00 | 54.63314 | -5.39040 | 7419 ft | 272 kts | 320° |
| 2026-04-25 18:00 | 54.64776 | -5.41036 | 7027 ft | 272 kts | 320° |
| 2026-04-25 18:00 | 54.66260 | -5.43063 | 6611 ft | 272 kts | 320° |
| 2026-04-25 18:01 | 54.67738 | -5.45087 | 6185 ft | 271 kts | 320° |
| 2026-04-25 18:01 | 54.69209 | -5.47102 | 5756 ft | 269 kts | 321° |
| 2026-04-25 18:01 | 54.70675 | -5.49110 | 5352 ft | 268 kts | 321° |
| 2026-04-25 18:01 | 54.72144 | -5.51129 | 4876 ft | 268 kts | 321° |
| 2026-04-25 18:02 | 54.73605 | -5.53140 | 4404 ft | 268 kts | 320° |
| 2026-04-25 18:02 | 54.75059 | -5.55138 | 3980 ft | 267 kts | 320° |
| 2026-04-25 18:02 | 54.76454 | -5.57055 | 3891 ft | 252 kts | 320° |
| 2026-04-25 18:02 | 54.77672 | -5.59081 | 3803 ft | 236 kts | 303° |
| 2026-04-25 18:03 | 54.78329 | -5.61559 | 3706 ft | 220 kts | 280° |
| 2026-04-25 18:03 | 54.78436 | -5.64121 | 3590 ft | 209 kts | 262° |
| 2026-04-25 18:03 | 54.78069 | -5.66465 | 3494 ft | 197 kts | 243° |
| 2026-04-25 18:03 | 54.77325 | -5.68397 | 3421 ft | 191 kts | 226° |
| 2026-04-25 18:04 | 54.76289 | -5.69849 | 3294 ft | 193 kts | 215° |
| 2026-04-25 18:04 | 54.75183 | -5.71180 | 3075 ft | 194 kts | 214° |
| 2026-04-25 18:04 | 54.74104 | -5.72482 | 2826 ft | 184 kts | 214° |
| 2026-04-25 18:04 | 54.73081 | -5.73714 | 2561 ft | 174 kts | 213° |
| 2026-04-25 18:05 | 54.72136 | -5.74853 | 2339 ft | 161 kts | 213° |
| 2026-04-25 18:05 | 54.71254 | -5.75916 | 2143 ft | 147 kts | 213° |
| 2026-04-25 18:05 | 54.70447 | -5.76887 | 1955 ft | 142 kts | 211° |
| 2026-04-25 18:05 | 54.69643 | -5.77850 | 1754 ft | 139 kts | 211° |
| 2026-04-25 18:06 | 54.68844 | -5.78812 | 1570 ft | 140 kts | 212° |
| 2026-04-25 18:06 | 54.68045 | -5.79776 | 1383 ft | 139 kts | 211° |
| 2026-04-25 18:06 | 54.67249 | -5.80740 | 1199 ft | 139 kts | 211° |
| 2026-04-25 18:06 | 54.66470 | -5.81754 | 1082 ft | 141 kts | 214° |
| 2026-04-25 18:07 | 54.65674 | -5.82753 | 848 ft | 141 kts | 208° |
| 2026-04-25 18:07 | 54.64837 | -5.83645 | 645 ft | 141 kts | 208° |
| 2026-04-25 18:07 | 54.64035 | -5.84599 | 413 ft | 142 kts | 212° |
| 2026-04-25 18:07 | 54.63234 | -5.85557 | 230 ft | 140 kts | 210° |
| 2026-04-25 18:08 | 54.62444 | -5.86501 | 49 ft | 138 kts | 211° |
| 2026-04-25 18:08 | 54.61720 | -5.87359 | 22 ft | 107 kts | 214° |
| 2026-04-25 18:08 | 54.61368 | -5.87780 | 19 ft | 14 kts | 214° |
| 2026-04-25 18:08 | 54.61292 | -5.87749 | 20 ft | 13 kts | 126° |
| 2026-04-25 18:09 | 54.61265 | -5.87682 | 21 ft | 0 kts | 126° |
| 2026-04-25 18:09 | 54.61256 | -5.87658 | 21 ft | 6 kts | 118° |
| 2026-04-25 18:09 | 54.61255 | -5.87631 | 21 ft | 8 kts | 89° |
| 2026-04-25 18:10 | 54.61330 | -5.87509 | 21 ft | 13 kts | 34° |
| 2026-04-25 18:10 | 54.61400 | -5.87404 | 21 ft | 13 kts | 52° |
| 2026-04-25 18:10 | 54.61423 | -5.87292 | 21 ft | 9 kts | 113° |
| 2026-04-25 18:10 | 54.61415 | -5.87274 | 22 ft | 0 kts | 128° |